Terminal Aerodrome Forecast
Issued by NWS Goodland, KS

Home | Current Version | Previous Version | Text Only | Print | Product List | Glossary On
Versions: 1 2 3 4 5 6 7 8 9 10 11 12 13 14 15 16 17 18 19 20 21
000
FTUS43 KGLD 280538
TAFGLD
TAF
KGLD 280538Z 2806/2906 15010G18KT P6SM BKN100
     FM280900 16010KT P6SM BKN015
     FM281100 16009KT 3SM BR OVC007
     FM281500 21008KT P6SM BKN025
     FM281700 18006KT P6SM SCT035 BKN250
     FM282100 16013G19KT P6SM VCTS BKN070CB
      TEMPO 2823/2902 3SM +TSRA BKN040CB
     FM290400 36008KT P6SM OVC200=

USA.gov is the U.S. government's official web portal to all federal, state and local government web resources and services.